sensor_id;sensor_type;location;lat;lon;timestamp;pressure;altitude;pressure_sealevel;temperature;humidity
56600;BME280;51832;48.152;11.530;2022-11-25T00:02:30;95436.50;;;6.34;72.29
56600;BME280;51832;48.152;11.530;2022-11-25T00:07:34;95451.44;;;5.99;72.77
56600;BME280;51832;48.152;11.530;2022-11-25T00:12:34;95457.09;;;6.09;72.76
56600;BME280;51832;48.152;11.530;2022-11-25T00:17:35;95451.03;;;6.02;73.08
56600;BME280;51832;48.152;11.530;2022-11-25T00:22:35;95443.97;;;5.96;73.08
56600;BME280;51832;48.152;11.530;2022-11-25T00:27:36;95445.25;;;5.79;73.73
56600;BME280;51832;48.152;11.530;2022-11-25T00:32:36;95449.69;;;6.13;72.70
56600;BME280;51832;48.152;11.530;2022-11-25T00:37:37;95450.50;;;6.13;72.72
56600;BME280;51832;48.152;11.530;2022-11-25T00:42:37;95451.03;;;6.02;72.50
56600;BME280;51832;48.152;11.530;2022-11-25T00:47:56;95447.88;;;6.13;72.45
56600;BME280;51832;48.152;11.530;2022-11-25T00:52:57;95445.06;;;5.80;72.51
56600;BME280;51832;48.152;11.530;2022-11-25T00:57:58;95451.50;;;5.84;72.43
56600;BME280;51832;48.152;11.530;2022-11-25T01:02:58;95440.94;;;5.92;72.70
56600;BME280;51832;48.152;11.530;2022-11-25T01:07:58;95439.84;;;5.80;72.34
56600;BME280;51832;48.152;11.530;2022-11-25T01:12:59;95446.66;;;5.81;72.25
56600;BME280;51832;48.152;11.530;2022-11-25T01:17:59;95439.25;;;5.85;72.06
56600;BME280;51832;48.152;11.530;2022-11-25T01:23:00;95426.50;;;5.96;71.44
56600;BME280;51832;48.152;11.530;2022-11-25T01:28:00;95427.63;;;6.22;70.99
56600;BME280;51832;48.152;11.530;2022-11-25T01:33:00;95431.22;;;6.21;70.44
56600;BME280;51832;48.152;11.530;2022-11-25T01:38:01;95440.38;;;6.03;70.70
56600;BME280;51832;48.152;11.530;2022-11-25T01:43:01;95449.44;;;6.07;70.82
56600;BME280;51832;48.152;11.530;2022-11-25T01:48:27;95440.06;;;6.13;71.03
56600;BME280;51832;48.152;11.530;2022-11-25T01:53:26;95433.09;;;6.33;70.25
56600;BME280;51832;48.152;11.530;2022-11-25T01:58:29;95430.47;;;6.33;69.37
56600;BME280;51832;48.152;11.530;2022-11-25T02:03:39;95422.25;;;6.36;69.41
56600;BME280;51832;48.152;11.530;2022-11-25T02:08:42;95415.03;;;6.38;69.32
56600;BME280;51832;48.152;11.530;2022-11-25T02:13:48;95428.03;;;6.32;69.84
56600;BME280;51832;48.152;11.530;2022-11-25T02:18:49;95422.09;;;6.51;69.20
56600;BME280;51832;48.152;11.530;2022-11-25T02:24:03;95421.66;;;6.48;69.22
56600;BME280;51832;48.152;11.530;2022-11-25T02:29:07;95411.44;;;6.59;68.98
56600;BME280;51832;48.152;11.530;2022-11-25T02:34:08;95413.06;;;6.54;68.80
56600;BME280;51832;48.152;11.530;2022-11-25T02:39:10;95414.03;;;6.46;69.01
56600;BME280;51832;48.152;11.530;2022-11-25T02:44:11;95428.91;;;6.46;69.01
56600;BME280;51832;48.152;11.530;2022-11-25T02:49:11;95419.66;;;6.56;68.20
56600;BME280;51832;48.152;11.530;2022-11-25T02:54:13;95424.28;;;6.48;68.76
56600;BME280;51832;48.152;11.530;2022-11-25T02:59:14;95420.09;;;6.53;68.72
56600;BME280;51832;48.152;11.530;2022-11-25T03:04:15;95440.38;;;6.51;68.23
56600;BME280;51832;48.152;11.530;2022-11-25T03:09:15;95429.75;;;6.53;68.20
56600;BME280;51832;48.152;11.530;2022-11-25T03:14:16;95432.50;;;6.38;68.72
56600;BME280;51832;48.152;11.530;2022-11-25T03:19:16;95418.47;;;6.52;68.91
56600;BME280;51832;48.152;11.530;2022-11-25T03:24:16;95426.50;;;6.51;68.52
56600;BME280;51832;48.152;11.530;2022-11-25T03:29:17;95410.63;;;6.52;68.92
56600;BME280;51832;48.152;11.530;2022-11-25T03:34:17;95416.88;;;6.58;69.11
56600;BME280;51832;48.152;11.530;2022-11-25T03:39:18;95418.66;;;6.51;69.04
56600;BME280;51832;48.152;11.530;2022-11-25T03:44:18;95430.94;;;6.57;69.03
56600;BME280;51832;48.152;11.530;2022-11-25T03:49:18;95416.47;;;6.61;68.86
56600;BME280;51832;48.152;11.530;2022-11-25T03:54:21;95420.72;;;6.62;68.48
56600;BME280;51832;48.152;11.530;2022-11-25T03:59:21;95424.34;;;6.67;68.29
56600;BME280;51832;48.152;11.530;2022-11-25T04:04:22;95438.19;;;6.61;68.18
56600;BME280;51832;48.152;11.530;2022-11-25T04:09:23;95430.19;;;6.69;67.98
56600;BME280;51832;48.152;11.530;2022-11-25T04:14:24;95442.22;;;6.64;68.84
56600;BME280;51832;48.152;11.530;2022-11-25T04:19:25;95439.19;;;6.60;69.34
56600;BME280;51832;48.152;11.530;2022-11-25T04:24:26;95438.66;;;6.78;68.68
56600;BME280;51832;48.152;11.530;2022-11-25T04:29:26;95435.03;;;6.86;68.77
56600;BME280;51832;48.152;11.530;2022-11-25T04:34:27;95458.75;;;6.84;68.45
56600;BME280;51832;48.152;11.530;2022-11-25T04:39:27;95455.34;;;6.84;67.94
56600;BME280;51832;48.152;11.530;2022-11-25T04:44:28;95448.91;;;6.86;68.13
56600;BME280;51832;48.152;11.530;2022-11-25T04:49:28;95452.13;;;6.82;68.32
56600;BME280;51832;48.152;11.530;2022-11-25T04:54:29;95449.09;;;6.78;67.93
56600;BME280;51832;48.152;11.530;2022-11-25T04:59:29;95445.25;;;6.74;67.96
56600;BME280;51832;48.152;11.530;2022-11-25T05:04:39;95446.66;;;6.70;68.71
56600;BME280;51832;48.152;11.530;2022-11-25T05:09:40;95440.69;;;6.89;68.06
56600;BME280;51832;48.152;11.530;2022-11-25T05:14:40;95449.94;;;6.98;67.77
56600;BME280;51832;48.152;11.530;2022-11-25T05:19:41;95449.13;;;6.91;68.58
56600;BME280;51832;48.152;11.530;2022-11-25T05:24:42;95443.28;;;6.89;68.62
56600;BME280;51832;48.152;11.530;2022-11-25T05:29:43;95453.16;;;6.81;68.90
56600;BME280;51832;48.152;11.530;2022-11-25T05:34:44;95446.50;;;6.78;68.83
56600;BME280;51832;48.152;11.530;2022-11-25T05:39:44;95459.28;;;8.44;90.64
56600;BME280;51832;48.152;11.530;2022-11-25T05:44:45;95449.44;;;10.45;79.23
56600;BME280;51832;48.152;11.530;2022-11-25T05:49:45;95441.75;;;11.33;72.44
56600;BME280;51832;48.152;11.530;2022-11-25T05:54:46;95453.50;;;12.19;63.39
56600;BME280;51832;48.152;11.530;2022-11-25T05:59:46;95473.00;;;11.83;65.36
56600;BME280;51832;48.152;11.530;2022-11-25T06:04:47;95480.53;;;9.12;57.24
56600;BME280;51832;48.152;11.530;2022-11-25T06:09:49;95466.84;;;8.01;61.03
56600;BME280;51832;48.152;11.530;2022-11-25T06:14:50;95463.47;;;7.35;63.39
56600;BME280;51832;48.152;11.530;2022-11-25T06:19:50;95465.47;;;7.06;65.34
56600;BME280;51832;48.152;11.530;2022-11-25T06:24:51;95469.63;;;6.88;65.40
56600;BME280;51832;48.152;11.530;2022-11-25T06:29:51;95455.91;;;6.66;66.34
56600;BME280;51832;48.152;11.530;2022-11-25T06:34:52;95464.38;;;6.68;67.19
56600;BME280;51832;48.152;11.530;2022-11-25T06:39:53;95465.50;;;6.46;67.83
56600;BME280;51832;48.152;11.530;2022-11-25T06:44:53;95460.19;;;6.26;68.54
56600;BME280;51832;48.152;11.530;2022-11-25T06:49:54;95477.81;;;6.17;68.41
56600;BME280;51832;48.152;11.530;2022-11-25T06:54:54;95470.91;;;5.96;69.05
56600;BME280;51832;48.152;11.530;2022-11-25T06:59:55;95471.53;;;6.05;69.22
56600;BME280;51832;48.152;11.530;2022-11-25T07:04:55;95459.88;;;6.42;67.88
56600;BME280;51832;48.152;11.530;2022-11-25T07:09:56;95458.44;;;6.46;66.18
56600;BME280;51832;48.152;11.530;2022-11-25T07:14:57;95482.44;;;6.63;65.89
56600;BME280;51832;48.152;11.530;2022-11-25T07:19:57;95483.88;;;6.72;66.15
56600;BME280;51832;48.152;11.530;2022-11-25T07:24:58;95477.25;;;6.76;66.07
56600;BME280;51832;48.152;11.530;2022-11-25T07:29:58;95491.41;;;6.40;66.33
56600;BME280;51832;48.152;11.530;2022-11-25T07:34:59;95486.78;;;6.42;66.59
56600;BME280;51832;48.152;11.530;2022-11-25T07:40:00;95488.16;;;6.32;66.03
56600;BME280;51832;48.152;11.530;2022-11-25T07:45:00;95480.31;;;6.32;65.54
56600;BME280;51832;48.152;11.530;2022-11-25T07:50:01;95493.16;;;6.27;65.36
56600;BME280;51832;48.152;11.530;2022-11-25T07:55:01;95497.91;;;6.51;63.27
56600;BME280;51832;48.152;11.530;2022-11-25T08:00:03;95508.88;;;6.81;61.95
56600;BME280;51832;48.152;11.530;2022-11-25T08:05:04;95519.38;;;7.01;61.56
56600;BME280;51832;48.152;11.530;2022-11-25T08:10:05;95509.94;;;7.13;61.42
56600;BME280;51832;48.152;11.530;2022-11-25T08:15:07;95501.06;;;7.01;61.30
56600;BME280;51832;48.152;11.530;2022-11-25T08:20:07;95498.28;;;7.22;60.92
56600;BME280;51832;48.152;11.530;2022-11-25T08:25:08;95494.88;;;7.41;61.85
56600;BME280;51832;48.152;11.530;2022-11-25T08:30:09;95497.28;;;7.69;61.72
56600;BME280;51832;48.152;11.530;2022-11-25T08:35:09;95496.25;;;7.97;61.54
56600;BME280;51832;48.152;11.530;2022-11-25T08:40:11;95495.63;;;8.14;61.33
56600;BME280;51832;48.152;11.530;2022-11-25T08:45:12;95507.69;;;8.22;61.97
56600;BME280;51832;48.152;11.530;2022-11-25T08:50:13;95536.53;;;8.09;61.83
56600;BME280;51832;48.152;11.530;2022-11-25T08:55:14;95546.59;;;8.38;60.81
56600;BME280;51832;48.152;11.530;2022-11-25T09:00:15;95555.44;;;8.50;59.36
56600;BME280;51832;48.152;11.530;2022-11-25T09:05:16;95561.09;;;8.47;60.53
56600;BME280;51832;48.152;11.530;2022-11-25T09:10:17;95558.09;;;8.37;60.25
56600;BME280;51832;48.152;11.530;2022-11-25T09:15:17;95574.00;;;8.55;59.96
56600;BME280;51832;48.152;11.530;2022-11-25T09:20:18;95578.69;;;8.34;61.54
56600;BME280;51832;48.152;11.530;2022-11-25T09:25:19;95576.84;;;8.34;60.88
56600;BME280;51832;48.152;11.530;2022-11-25T09:30:20;95578.88;;;8.45;60.40
56600;BME280;51832;48.152;11.530;2022-11-25T09:35:22;95583.50;;;8.50;60.38
56600;BME280;51832;48.152;11.530;2022-11-25T09:40:29;95576.78;;;8.67;59.17
56600;BME280;51832;48.152;11.530;2022-11-25T09:45:50;95569.56;;;9.14;58.86
56600;BME280;51832;48.152;11.530;2022-11-25T09:51:23;95577.19;;;9.22;57.44
56600;BME280;51832;48.152;11.530;2022-11-25T09:56:30;95581.16;;;8.93;58.28
56600;BME280;51832;48.152;11.530;2022-11-25T10:01:51;95578.72;;;8.91;57.79
56600;BME280;51832;48.152;11.530;2022-11-25T10:06:58;95576.84;;;9.05;57.64
56600;BME280;51832;48.152;11.530;2022-11-25T10:12:05;95578.91;;;9.41;56.50
56600;BME280;51832;48.152;11.530;2022-11-25T10:17:53;95582.63;;;9.58;56.53
56600;BME280;51832;48.152;11.530;2022-11-25T10:22:59;95582.63;;;9.90;55.09
56600;BME280;51832;48.152;11.530;2022-11-25T10:28:27;95583.31;;;10.28;54.16
56600;BME280;51832;48.152;11.530;2022-11-25T10:33:33;95586.50;;;10.37;54.47
56600;BME280;51832;48.152;11.530;2022-11-25T10:43:40;95589.69;;;10.64;52.30
56600;BME280;51832;48.152;11.530;2022-11-25T10:49:56;95582.94;;;10.86;51.61
56600;BME280;51832;48.152;11.530;2022-11-25T10:54:25;95593.59;;;11.28;50.40
56600;BME280;51832;48.152;11.530;2022-11-25T10:59:28;95582.84;;;11.59;50.64
56600;BME280;51832;48.152;11.530;2022-11-25T11:04:29;95569.97;;;11.81;49.69
56600;BME280;51832;48.152;11.530;2022-11-25T11:09:36;95562.78;;;11.88;48.05
56600;BME280;51832;48.152;11.530;2022-11-25T11:14:36;95571.72;;;11.87;48.13
56600;BME280;51832;48.152;11.530;2022-11-25T11:19:37;95572.16;;;11.54;48.65
56600;BME280;51832;48.152;11.530;2022-11-25T11:24:37;95565.69;;;11.38;47.72
56600;BME280;51832;48.152;11.530;2022-11-25T11:29:38;95573.03;;;11.48;47.94
56600;BME280;51832;48.152;11.530;2022-11-25T11:34:54;95572.69;;;11.74;47.33
56600;BME280;51832;48.152;11.530;2022-11-25T11:45:44;95566.09;;;11.84;47.18
56600;BME280;51832;48.152;11.530;2022-11-25T11:56:19;95547.25;;;12.97;46.10
56600;BME280;51832;48.152;11.530;2022-11-25T12:01:47;95556.38;;;13.18;45.21
56600;BME280;51832;48.152;11.530;2022-11-25T12:07:01;95557.00;;;13.65;44.31
56600;BME280;51832;48.152;11.530;2022-11-25T12:12:05;95558.03;;;13.64;44.42
56600;BME280;51832;48.152;11.530;2022-11-25T12:17:31;95557.28;;;13.80;44.64
56600;BME280;51832;48.152;11.530;2022-11-25T12:22:41;95553.72;;;14.24;44.42
56600;BME280;51832;48.152;11.530;2022-11-25T12:27:55;95546.16;;;14.67;42.72
56600;BME280;51832;48.152;11.530;2022-11-25T12:38:14;95551.88;;;15.68;40.58
56600;BME280;51832;48.152;11.530;2022-11-25T12:43:44;95555.50;;;15.56;39.60
56600;BME280;51832;48.152;11.530;2022-11-25T12:48:41;95549.38;;;15.56;38.80
56600;BME280;51832;48.152;11.530;2022-11-25T12:54:08;95551.19;;;15.28;39.73
56600;BME280;51832;48.152;11.530;2022-11-25T13:10:35;95550.88;;;16.06;38.64
56600;BME280;51832;48.152;11.530;2022-11-25T13:15:43;95547.47;;;15.29;40.96
56600;BME280;51832;48.152;11.530;2022-11-25T13:25:48;95563.03;;;14.99;43.06
56600;BME280;51832;48.152;11.530;2022-11-25T13:30:51;95555.72;;;14.68;44.23
56600;BME280;51832;48.152;11.530;2022-11-25T13:35:53;95560.78;;;14.52;44.92
56600;BME280;51832;48.152;11.530;2022-11-25T13:41:02;95575.09;;;14.18;46.08
56600;BME280;51832;48.152;11.530;2022-11-25T13:46:03;95566.41;;;14.22;46.02
56600;BME280;51832;48.152;11.530;2022-11-25T13:51:23;95577.16;;;14.16;46.45
56600;BME280;51832;48.152;11.530;2022-11-25T14:01:26;95575.63;;;14.03;47.27
56600;BME280;51832;48.152;11.530;2022-11-25T14:11:54;95597.69;;;13.92;47.75
56600;BME280;51832;48.152;11.530;2022-11-25T14:18:03;95604.56;;;14.10;53.74
56600;BME280;51832;48.152;11.530;2022-11-25T14:28:35;95622.25;;;13.47;50.43
56600;BME280;51832;48.152;11.530;2022-11-25T14:38:53;95655.78;;;12.07;60.81
56600;BME280;51832;48.152;11.530;2022-11-25T14:44:02;95663.81;;;12.00;63.78
56600;BME280;51832;48.152;11.530;2022-11-25T14:49:03;95670.91;;;12.00;64.36
56600;BME280;51832;48.152;11.530;2022-11-25T14:54:08;95684.28;;;11.87;65.93
56600;BME280;51832;48.152;11.530;2022-11-25T14:59:09;95687.34;;;11.65;67.58
56600;BME280;51832;48.152;11.530;2022-11-25T15:04:19;95691.50;;;11.43;69.38
56600;BME280;51832;48.152;11.530;2022-11-25T15:09:26;95705.03;;;11.47;69.85
56600;BME280;51832;48.152;11.530;2022-11-25T15:14:30;95710.59;;;11.57;70.09
56600;BME280;51832;48.152;11.530;2022-11-25T15:19:31;95707.44;;;11.85;70.10
56600;BME280;51832;48.152;11.530;2022-11-25T15:24:45;95708.00;;;11.68;71.11
56600;BME280;51832;48.152;11.530;2022-11-25T15:29:47;95721.72;;;11.40;72.45
56600;BME280;51832;48.152;11.530;2022-11-25T15:34:48;95728.44;;;11.18;72.86
56600;BME280;51832;48.152;11.530;2022-11-25T15:40:19;95742.72;;;11.29;73.60
56600;BME280;51832;48.152;11.530;2022-11-25T15:45:19;95742.03;;;11.15;74.48
56600;BME280;51832;48.152;11.530;2022-11-25T15:50:23;95745.44;;;10.97;74.64
56600;BME280;51832;48.152;11.530;2022-11-25T15:55:36;95752.88;;;10.82;75.32
56600;BME280;51832;48.152;11.530;2022-11-25T16:00:37;95742.16;;;11.02;75.06
56600;BME280;51832;48.152;11.530;2022-11-25T16:05:54;95760.97;;;10.81;76.27
56600;BME280;51832;48.152;11.530;2022-11-25T16:10:57;95768.03;;;10.30;77.44
56600;BME280;51832;48.152;11.530;2022-11-25T16:21:11;95782.59;;;10.26;78.25
56600;BME280;51832;48.152;11.530;2022-11-25T16:31:18;95785.56;;;9.98;80.05
56600;BME280;51832;48.152;11.530;2022-11-25T16:36:19;95790.25;;;9.96;80.83
56600;BME280;51832;48.152;11.530;2022-11-25T16:41:22;95794.44;;;10.04;80.80
56600;BME280;51832;48.152;11.530;2022-11-25T16:46:24;95804.16;;;10.04;79.82
56600;BME280;51832;48.152;11.530;2022-11-25T16:51:24;95815.31;;;9.92;80.77
56600;BME280;51832;48.152;11.530;2022-11-25T16:56:28;95823.28;;;10.17;80.11
56600;BME280;51832;48.152;11.530;2022-11-25T17:01:29;95820.72;;;10.11;80.52
56600;BME280;51832;48.152;11.530;2022-11-25T17:06:30;95834.84;;;10.23;80.44
56600;BME280;51832;48.152;11.530;2022-11-25T17:11:31;95847.97;;;10.16;81.05
56600;BME280;51832;48.152;11.530;2022-11-25T17:16:32;95862.81;;;9.97;81.16
56600;BME280;51832;48.152;11.530;2022-11-25T17:21:33;95875.53;;;10.01;81.43
56600;BME280;51832;48.152;11.530;2022-11-25T17:26:39;95878.97;;;10.01;81.78
56600;BME280;51832;48.152;11.530;2022-11-25T17:31:41;95883.78;;;10.17;81.42
56600;BME280;51832;48.152;11.530;2022-11-25T17:36:43;95897.56;;;10.19;81.22
56600;BME280;51832;48.152;11.530;2022-11-25T17:41:49;95907.22;;;10.25;81.42
56600;BME280;51832;48.152;11.530;2022-11-25T17:46:51;95915.34;;;10.24;81.17
56600;BME280;51832;48.152;11.530;2022-11-25T17:51:52;95928.88;;;10.14;81.61
56600;BME280;51832;48.152;11.530;2022-11-25T17:56:52;95922.69;;;9.89;82.39
56600;BME280;51832;48.152;11.530;2022-11-25T18:01:52;95928.72;;;10.22;81.48
56600;BME280;51832;48.152;11.530;2022-11-25T18:06:55;95942.91;;;9.88;82.55
56600;BME280;51832;48.152;11.530;2022-11-25T18:11:58;95950.59;;;9.77;82.72
56600;BME280;51832;48.152;11.530;2022-11-25T18:17:12;95957.91;;;9.48;82.94
56600;BME280;51832;48.152;11.530;2022-11-25T18:22:17;95960.91;;;9.72;81.50
56600;BME280;51832;48.152;11.530;2022-11-25T18:27:24;95960.09;;;9.91;80.48
56600;BME280;51832;48.152;11.530;2022-11-25T18:32:25;95962.72;;;9.97;80.06
56600;BME280;51832;48.152;11.530;2022-11-25T18:37:26;95972.44;;;9.84;80.41
56600;BME280;51832;48.152;11.530;2022-11-25T18:42:27;95962.34;;;9.61;80.52
56600;BME280;51832;48.152;11.530;2022-11-25T18:47:27;95979.72;;;9.55;80.94
56600;BME280;51832;48.152;11.530;2022-11-25T18:52:28;95980.31;;;9.71;80.38
56600;BME280;51832;48.152;11.530;2022-11-25T18:57:28;95989.00;;;9.71;80.34
56600;BME280;51832;48.152;11.530;2022-11-25T19:02:29;95993.88;;;9.54;80.55
56600;BME280;51832;48.152;11.530;2022-11-25T19:07:29;96008.63;;;9.55;80.41
56600;BME280;51832;48.152;11.530;2022-11-25T19:12:29;96000.31;;;9.58;80.54
56600;BME280;51832;48.152;11.530;2022-11-25T19:17:30;96012.88;;;9.70;79.98
56600;BME280;51832;48.152;11.530;2022-11-25T19:22:30;96019.34;;;9.67;79.61
56600;BME280;51832;48.152;11.530;2022-11-25T19:27:34;96039.94;;;9.63;80.02
56600;BME280;51832;48.152;11.530;2022-11-25T19:32:35;96045.19;;;9.50;79.59
56600;BME280;51832;48.152;11.530;2022-11-25T19:37:36;96053.63;;;9.33;80.23
56600;BME280;51832;48.152;11.530;2022-11-25T19:42:37;96059.66;;;9.20;80.80
56600;BME280;51832;48.152;11.530;2022-11-25T19:47:38;96064.91;;;9.20;80.91
56600;BME280;51832;48.152;11.530;2022-11-25T19:52:39;96078.19;;;9.05;82.01
56600;BME280;51832;48.152;11.530;2022-11-25T19:57:40;96081.88;;;9.11;81.35
56600;BME280;51832;48.152;11.530;2022-11-25T20:02:41;96090.50;;;9.05;81.21
56600;BME280;51832;48.152;11.530;2022-11-25T20:07:42;96105.50;;;9.17;81.12
56600;BME280;51832;48.152;11.530;2022-11-25T20:12:43;96116.75;;;8.98;82.00
56600;BME280;51832;48.152;11.530;2022-11-25T20:17:49;96121.75;;;8.86;80.95
56600;BME280;51832;48.152;11.530;2022-11-25T20:22:54;96123.56;;;8.93;81.20
56600;BME280;51832;48.152;11.530;2022-11-25T20:27:57;96133.81;;;8.81;80.70
56600;BME280;51832;48.152;11.530;2022-11-25T20:32:58;96140.22;;;8.72;81.04
56600;BME280;51832;48.152;11.530;2022-11-25T20:37:58;96152.94;;;8.75;80.72
56600;BME280;51832;48.152;11.530;2022-11-25T20:43:00;96156.09;;;8.64;81.20
56600;BME280;51832;48.152;11.530;2022-11-25T20:48:00;96168.03;;;8.38;81.40
56600;BME280;51832;48.152;11.530;2022-11-25T20:53:01;96191.00;;;8.36;81.21
56600;BME280;51832;48.152;11.530;2022-11-25T20:58:29;96193.63;;;8.36;80.85
56600;BME280;51832;48.152;11.530;2022-11-25T21:03:31;96199.06;;;8.35;81.14
56600;BME280;51832;48.152;11.530;2022-11-25T21:08:31;96196.88;;;8.38;80.45
56600;BME280;51832;48.152;11.530;2022-11-25T21:13:31;96214.34;;;8.52;80.13
56600;BME280;51832;48.152;11.530;2022-11-25T21:18:32;96213.63;;;8.65;79.59
56600;BME280;51832;48.152;11.530;2022-11-25T21:23:35;96224.75;;;8.67;79.46
56600;BME280;51832;48.152;11.530;2022-11-25T21:28:39;96225.78;;;8.45;80.41
56600;BME280;51832;48.152;11.530;2022-11-25T21:33:41;96230.00;;;8.95;82.38
56600;BME280;51832;48.152;11.530;2022-11-25T21:38:42;96233.66;;;8.45;80.60
56600;BME280;51832;48.152;11.530;2022-11-25T21:43:44;96232.00;;;8.65;80.80
56600;BME280;51832;48.152;11.530;2022-11-25T21:48:46;96241.09;;;8.41;82.13
56600;BME280;51832;48.152;11.530;2022-11-25T21:53:47;96250.81;;;8.47;82.06
56600;BME280;51832;48.152;11.530;2022-11-25T21:58:47;96261.28;;;8.69;81.33
56600;BME280;51832;48.152;11.530;2022-11-25T22:03:48;96260.31;;;8.48;82.30
56600;BME280;51832;48.152;11.530;2022-11-25T22:08:49;96257.78;;;8.62;81.78
56600;BME280;51832;48.152;11.530;2022-11-25T22:13:50;96269.50;;;8.59;81.68
56600;BME280;51832;48.152;11.530;2022-11-25T22:18:50;96277.47;;;8.72;81.18
56600;BME280;51832;48.152;11.530;2022-11-25T22:23:51;96282.91;;;8.71;81.61
56600;BME280;51832;48.152;11.530;2022-11-25T22:28:51;96278.88;;;8.75;81.23
56600;BME280;51832;48.152;11.530;2022-11-25T22:33:52;96283.56;;;8.79;80.95
56600;BME280;51832;48.152;11.530;2022-11-25T22:38:53;96294.34;;;8.63;81.50
56600;BME280;51832;48.152;11.530;2022-11-25T22:43:53;96287.56;;;8.97;80.17
56600;BME280;51832;48.152;11.530;2022-11-25T22:48:54;96297.34;;;9.16;79.53
56600;BME280;51832;48.152;11.530;2022-11-25T22:53:54;96296.78;;;9.20;79.18
56600;BME280;51832;48.152;11.530;2022-11-25T22:58:54;96299.78;;;8.89;80.26
56600;BME280;51832;48.152;11.530;2022-11-25T23:03:59;96301.78;;;9.09;79.30
56600;BME280;51832;48.152;11.530;2022-11-25T23:08:59;96299.38;;;9.14;79.25
56600;BME280;51832;48.152;11.530;2022-11-25T23:14:02;96295.97;;;9.20;79.10
56600;BME280;51832;48.152;11.530;2022-11-25T23:19:02;96308.84;;;9.08;79.05
56600;BME280;51832;48.152;11.530;2022-11-25T23:24:15;96313.53;;;9.13;78.97
56600;BME280;51832;48.152;11.530;2022-11-25T23:29:15;96319.41;;;8.94;79.72
56600;BME280;51832;48.152;11.530;2022-11-25T23:34:16;96310.91;;;8.91;79.86
56600;BME280;51832;48.152;11.530;2022-11-25T23:39:20;96316.25;;;8.77;79.95
56600;BME280;51832;48.152;11.530;2022-11-25T23:44:25;96319.31;;;8.80;80.38
56600;BME280;51832;48.152;11.530;2022-11-25T23:49:29;96312.00;;;8.76;79.92
56600;BME280;51832;48.152;11.530;2022-11-25T23:54:39;96326.69;;;8.70;80.10
56600;BME280;51832;48.152;11.530;2022-11-25T23:59:41;96334.75;;;8.47;81.07
